Time;durP1;ratioP1;P1;durP2;ratioP2;P2;SDS_P1;SDS_P2;PMS_P1;PMS_P2;Temp;Humidity;BMP_temperature;BMP_pressure;BME280_temperature;BME280_humidity;BME280_pressure;Samples;Min_cycle;Max_cycle;Signal;HPM_P1;HPM_P2
2023/02/10 00:01:16;;;;;;;9.83;3.43;;;-2.80;98.00;;;;;;5049137;28;20461;-64
2023/02/10 00:03:43;;;;;;;8.30;3.80;;;-2.70;98.00;;;;;;5050463;28;20821;-65
2023/02/10 00:06:13;;;;;;;14.73;5.37;;;-2.70;98.00;;;;;;5050441;28;20467;-65
2023/02/10 00:08:40;;;;;;;14.23;4.10;;;-2.70;98.00;;;;;;5050528;28;20652;-64
2023/02/10 00:11:10;;;;;;;7.15;4.78;;;-2.70;98.00;;;;;;5050576;28;20584;-65
2023/02/10 00:13:37;;;;;;;8.17;3.97;;;-2.80;98.00;;;;;;5050626;28;20639;-64
2023/02/10 00:16:06;;;;;;;7.70;4.07;;;-2.80;98.00;;;;;;5053270;28;21073;-64
2023/02/10 00:18:34;;;;;;;12.57;4.00;;;-2.80;98.00;;;;;;5054009;28;20975;-65
2023/02/10 00:21:07;;;;;;;9.68;4.93;;;-2.80;98.00;;;;;;5052578;28;20455;-65
2023/02/10 00:23:35;;;;;;;9.70;4.07;;;-2.90;98.00;;;;;;5053814;28;20204;-65
2023/02/10 00:26:04;;;;;;;5.70;3.87;;;-3.00;98.00;;;;;;5053612;28;20509;-65
2023/02/10 00:28:32;;;;;;;22.23;5.88;;;-3.00;98.00;;;;;;5053904;28;20557;-64
2023/02/10 00:30:59;;;;;;;6.22;4.20;;;-2.90;98.00;;;;;;5053423;28;20292;-64
2023/02/10 00:33:26;;;;;;;7.83;4.43;;;-2.80;98.00;;;;;;5053824;28;20266;-64
2023/02/10 00:35:53;;;;;;;11.73;4.93;;;-2.70;98.00;;;;;;5053550;28;20488;-64
2023/02/10 00:38:23;;;;;;;10.55;5.18;;;-2.70;98.00;;;;;;5053630;28;20678;-64
2023/02/10 00:40:52;;;;;;;10.90;4.70;;;-2.70;98.00;;;;;;5053356;28;20712;-64
2023/02/10 00:43:19;;;;;;;8.50;4.47;;;-3.00;98.00;;;;;;5053574;28;20204;-64
2023/02/10 00:45:46;;;;;;;5.88;4.55;;;-3.00;98.00;;;;;;5053470;28;20800;-65
2023/02/10 00:48:13;;;;;;;10.13;4.68;;;-2.90;98.00;;;;;;5053384;28;20282;-64
2023/02/10 00:50:40;;;;;;;11.60;4.77;;;-2.90;98.00;;;;;;5053399;28;20206;-65
2023/02/10 00:53:07;;;;;;;5.32;4.07;;;-3.10;98.00;;;;;;5051992;28;20509;-64
2023/02/10 00:55:34;;;;;;;13.37;4.20;;;-3.10;98.00;;;;;;5053118;28;20220;-65
2023/02/10 00:58:02;;;;;;;5.87;4.80;;;-3.20;98.00;;;;;;5052057;28;20832;-65
2023/02/10 01:00:29;;;;;;;9.60;5.22;;;-3.30;98.00;;;;;;5053210;28;20471;-64
2023/02/10 01:02:56;;;;;;;7.13;4.60;;;-3.30;98.00;;;;;;5053065;28;20548;-64
2023/02/10 01:05:23;;;;;;;6.40;3.58;;;-3.40;98.00;;;;;;5053214;28;20208;-64
2023/02/10 01:07:52;;;;;;;7.70;4.40;;;-3.50;98.00;;;;;;5053415;28;20212;-65
2023/02/10 01:10:19;;;;;;;5.10;4.00;;;-3.60;98.00;;;;;;5053323;28;20663;-64
2023/02/10 01:12:47;;;;;;;8.77;4.65;;;-3.60;98.00;;;;;;5053137;28;20463;-64
2023/02/10 01:15:15;;;;;;;5.63;4.20;;;-3.50;98.00;;;;;;5053024;28;20224;-65
2023/02/10 01:17:43;;;;;;;15.57;5.78;;;-3.50;98.00;;;;;;5052729;28;20956;-64
2023/02/10 01:20:11;;;;;;;3.75;3.53;;;-3.50;98.00;;;;;;5051868;28;20257;-64
2023/02/10 01:22:38;;;;;;;12.40;6.13;;;-3.50;98.00;;;;;;5052699;28;20676;-64
2023/02/10 01:25:05;;;;;;;5.03;3.90;;;-3.40;98.00;;;;;;5051334;28;20472;-65
2023/02/10 01:27:33;;;;;;;12.40;4.40;;;-3.20;98.00;;;;;;5052086;28;20944;-64
2023/02/10 01:30:01;;;;;;;6.03;3.88;;;-3.40;98.00;;;;;;5052530;28;20211;-64
2023/02/10 01:32:29;;;;;;;16.08;4.80;;;-3.50;98.00;;;;;;5052700;28;20242;-64
2023/02/10 01:34:57;;;;;;;8.02;3.88;;;-3.50;98.00;;;;;;5051182;28;20715;-64
2023/02/10 01:37:24;;;;;;;8.25;4.72;;;-3.60;98.00;;;;;;5052775;28;20211;-64
2023/02/10 01:39:51;;;;;;;9.73;3.83;;;-3.50;98.00;;;;;;5052411;28;20215;-64
2023/02/10 01:42:18;;;;;;;7.07;4.38;;;-3.50;98.00;;;;;;5052487;28;20208;-64
2023/02/10 01:45:17;;;;;;;12.35;4.07;;;-3.50;98.00;;;;;;5052368;28;20256;-65
2023/02/10 01:47:47;;;;;;;8.33;4.87;;;-3.60;98.00;;;;;;5018307;28;20207;-64
2023/02/10 01:50:16;;;;;;;5.03;3.47;;;-3.40;98.00;;;;;;5052424;28;20474;-63
2023/02/10 01:52:45;;;;;;;12.73;5.50;;;-3.30;98.00;;;;;;5052384;28;20253;-64
2023/02/10 01:55:15;;;;;;;9.38;4.95;;;-3.30;98.00;;;;;;5051935;28;20223;-64
2023/02/10 01:57:45;;;;;;;11.57;6.20;;;-3.50;98.00;;;;;;5051242;28;20208;-65
2023/02/10 02:00:14;;;;;;;8.18;5.22;;;-3.70;98.00;;;;;;5052061;28;20211;-64
2023/02/10 02:02:45;;;;;;;10.50;5.28;;;-3.90;98.00;;;;;;5051065;28;20203;-64
2023/02/10 02:05:31;;;;;;;9.85;4.82;;;-4.00;98.00;;;;;;5052088;28;20294;-64
2023/02/10 02:08:03;;;;;;;6.30;4.65;;;-4.10;98.00;;;;;;5051947;28;20211;-64
2023/02/10 02:10:58;;;;;;;8.90;5.80;;;-4.00;98.00;;;;;;5052397;28;20218;-64
2023/02/10 02:13:41;;;;;;;11.55;4.25;;;-4.00;98.00;;;;;;5036568;28;20253;-64
2023/02/10 02:16:17;;;;;;;11.10;5.25;;;-3.80;98.00;;;;;;5050869;28;20231;-64
2023/02/10 02:18:52;;;;;;;11.38;5.05;;;-3.90;98.00;;;;;;5051817;28;20199;-64
2023/02/10 02:21:48;;;;;;;11.95;5.18;;;-4.00;98.00;;;;;;5049847;28;20612;-64
2023/02/10 02:24:42;;;;;;;7.20;4.65;;;-3.90;98.00;;;;;;5051610;28;20681;-64
2023/02/10 02:27:28;;;;;;;6.10;4.60;;;-4.00;98.00;;;;;;5015640;28;20353;-64
2023/02/10 02:30:23;;;;;;;12.27;5.70;;;-4.10;98.00;;;;;;5051542;28;20210;-64
2023/02/10 02:32:55;;;;;;;7.35;3.83;;;-4.20;98.00;;;;;;5051403;28;20203;-64
2023/02/10 02:35:25;;;;;;;3.00;2.58;;;-4.00;98.00;;;;;;5051165;28;20697;-64
2023/02/10 02:37:54;;;;;;;15.57;4.72;;;-4.00;98.00;;;;;;5051129;28;20677;-64
2023/02/10 02:40:22;;;;;;;7.70;4.45;;;-4.10;98.00;;;;;;5051425;28;20666;-63
2023/02/10 02:42:49;;;;;;;7.13;4.07;;;-4.00;98.00;;;;;;5050945;28;20250;-63
2023/02/10 02:45:20;;;;;;;10.27;5.38;;;-3.90;98.00;;;;;;5051223;28;20207;-64
2023/02/10 02:48:04;;;;;;;10.77;5.43;;;-3.70;98.00;;;;;;5051478;28;20693;-64
2023/02/10 02:50:36;;;;;;;4.22;3.05;;;-3.70;98.00;;;;;;5051244;28;20207;-64
2023/02/10 02:53:14;;;;;;;4.75;4.30;;;-3.80;98.00;;;;;;5051124;28;20616;-64
2023/02/10 02:56:00;;;;;;;8.07;4.90;;;-3.90;98.00;;;;;;5050978;28;20231;-64
2023/02/10 02:58:33;;;;;;;4.05;3.22;;;-3.80;98.00;;;;;;5051254;28;20244;-64
2023/02/10 03:01:06;;;;;;;8.15;4.65;;;-3.90;98.00;;;;;;5051320;28;20212;-64
2023/02/10 03:03:35;;;;;;;4.38;3.67;;;-3.70;98.00;;;;;;5051274;28;20261;-64
2023/02/10 03:06:03;;;;;;;9.75;5.28;;;-3.60;98.00;;;;;;5051122;28;20574;-64
2023/02/10 03:08:32;;;;;;;7.50;4.45;;;-3.60;98.00;;;;;;5051202;28;20254;-64
2023/02/10 03:10:59;;;;;;;9.98;6.00;;;-3.60;98.00;;;;;;5051115;28;20662;-64
2023/02/10 03:13:26;;;;;;;8.02;4.32;;;-3.80;98.00;;;;;;5051004;28;20207;-64
2023/02/10 03:15:53;;;;;;;8.73;4.47;;;-4.00;98.00;;;;;;5050965;28;20227;-64
2023/02/10 03:18:20;;;;;;;8.25;4.72;;;-3.90;98.00;;;;;;5049789;28;20465;-64
2023/02/10 03:20:49;;;;;;;13.60;7.05;;;-3.90;98.00;;;;;;5050825;28;20574;-63
2023/02/10 03:23:16;;;;;;;8.15;3.90;;;-3.80;98.00;;;;;;5050910;28;20210;-64
2023/02/10 03:25:45;;;;;;;4.93;3.38;;;-4.00;98.00;;;;;;5050909;28;20214;-63
2023/02/10 03:28:13;;;;;;;13.63;5.18;;;-4.10;98.00;;;;;;5050642;28;20219;-64
2023/02/10 03:30:41;;;;;;;4.10;3.22;;;-4.20;98.00;;;;;;5050667;28;20214;-64
2023/02/10 03:33:09;;;;;;;7.82;4.65;;;-4.10;98.00;;;;;;5050707;28;20615;-64
2023/02/10 03:35:39;;;;;;;7.63;5.15;;;-4.30;98.00;;;;;;5049475;28;20307;-64
2023/02/10 03:38:08;;;;;;;8.82;4.78;;;-4.10;98.00;;;;;;5050450;28;20209;-64
2023/02/10 03:40:35;;;;;;;7.28;4.13;;;-3.90;98.00;;;;;;5050756;28;20208;-64
2023/02/10 03:43:02;;;;;;;11.32;6.68;;;-3.90;98.00;;;;;;5049313;28;20540;-64
2023/02/10 03:45:29;;;;;;;8.55;3.90;;;-4.00;98.00;;;;;;5050559;28;20250;-64
2023/02/10 03:47:56;;;;;;;4.88;3.00;;;-4.10;98.00;;;;;;5050570;28;20207;-64
2023/02/10 03:50:23;;;;;;;7.63;3.90;;;-4.20;98.00;;;;;;5052933;28;20203;-65
2023/02/10 03:52:50;;;;;;;14.45;5.05;;;-4.40;98.00;;;;;;5054476;28;20195;-64
2023/02/10 03:55:19;;;;;;;13.90;4.30;;;-4.40;98.00;;;;;;5054306;28;20679;-64
2023/02/10 03:57:46;;;;;;;7.50;4.07;;;-4.30;98.00;;;;;;5054262;28;20203;-64
2023/02/10 04:00:15;;;;;;;8.20;4.50;;;-4.30;98.00;;;;;;5054325;28;20211;-64
2023/02/10 04:02:42;;;;;;;6.50;4.28;;;-4.10;98.00;;;;;;5054203;28;20261;-64
2023/02/10 04:05:09;;;;;;;6.53;3.67;;;-4.00;98.00;;;;;;5054717;28;20191;-64
2023/02/10 04:07:36;;;;;;;7.97;5.10;;;-4.00;98.00;;;;;;5054489;28;20199;-64
2023/02/10 04:10:05;;;;;;;6.05;3.58;;;-4.10;98.00;;;;;;5053691;28;20203;-64
2023/02/10 04:12:34;;;;;;;20.70;5.90;;;-4.30;98.00;;;;;;5054165;28;20206;-63
2023/02/10 04:15:01;;;;;;;10.95;4.47;;;-4.30;98.00;;;;;;5054100;28;20468;-64
2023/02/10 04:17:28;;;;;;;5.82;4.15;;;-4.30;98.00;;;;;;5052497;28;20234;-63
2023/02/10 04:19:55;;;;;;;8.95;3.72;;;-4.30;98.00;;;;;;5053933;28;20192;-65
2023/02/10 04:22:22;;;;;;;6.80;4.90;;;-4.20;98.00;;;;;;5053891;28;20203;-64
2023/02/10 04:24:50;;;;;;;7.20;3.35;;;-4.10;98.00;;;;;;5053848;28;20196;-65
2023/02/10 04:27:17;;;;;;;6.65;4.32;;;-4.10;98.00;;;;;;5053891;28;20622;-65
2023/02/10 04:29:45;;;;;;;3.95;3.25;;;-4.20;98.00;;;;;;5053641;28;20207;-65
2023/02/10 04:32:12;;;;;;;7.07;4.40;;;-4.30;98.00;;;;;;5053637;28;20200;-65
2023/02/10 04:34:39;;;;;;;8.52;3.80;;;-4.40;98.00;;;;;;5052516;28;20558;-65
2023/02/10 04:37:06;;;;;;;6.97;4.53;;;-4.60;98.00;;;;;;5053358;28;20318;-64
2023/02/10 04:39:33;;;;;;;6.07;5.57;;;-4.60;98.00;;;;;;5053918;28;20214;-63
2023/02/10 04:42:00;;;;;;;18.25;5.22;;;-4.80;98.00;;;;;;5053919;28;20200;-65
2023/02/10 04:44:35;;;;;;;6.40;4.75;;;-4.80;98.00;;;;;;5053847;28;20206;-64
2023/02/10 04:47:04;;;;;;;16.45;4.53;;;-4.70;98.00;;;;;;5052236;28;20288;-64
2023/02/10 04:49:32;;;;;;;7.53;4.78;;;-4.80;98.00;;;;;;5053671;28;20692;-65
2023/02/10 04:51:59;;;;;;;7.78;2.58;;;-4.70;98.00;;;;;;5053392;28;20213;-64
2023/02/10 04:54:27;;;;;;;7.53;4.63;;;-4.70;98.00;;;;;;5053510;28;20692;-65
2023/02/10 04:56:54;;;;;;;5.95;4.13;;;-4.70;98.00;;;;;;5052973;28;20265;-64
2023/02/10 04:59:21;;;;;;;5.32;4.28;;;-4.80;98.00;;;;;;5053431;28;20199;-65
2023/02/10 05:01:48;;;;;;;8.40;4.18;;;-4.90;98.00;;;;;;5052001;28;20695;-65
2023/02/10 05:04:16;;;;;;;11.85;6.03;;;-4.80;98.00;;;;;;5053409;28;20196;-65
2023/02/10 05:06:43;;;;;;;12.35;3.40;;;-4.80;98.00;;;;;;5053628;28;20254;-64
2023/02/10 05:09:10;;;;;;;2.70;2.50;;;-4.70;98.00;;;;;;5053146;28;20309;-64
2023/02/10 05:11:37;;;;;;;2.58;2.38;;;-4.60;98.00;;;;;;5052974;28;20361;-64
2023/02/10 05:14:04;;;;;;;5.95;3.55;;;-4.60;98.00;;;;;;5053075;28;20275;-65
2023/02/10 05:16:32;;;;;;;10.73;4.88;;;-4.60;98.00;;;;;;5053061;28;20242;-64
2023/02/10 05:18:59;;;;;;;4.00;2.95;;;-4.70;98.00;;;;;;5051627;28;20207;-64
2023/02/10 05:21:27;;;;;;;8.25;4.45;;;-4.90;98.00;;;;;;5051681;28;20557;-64
2023/02/10 05:23:54;;;;;;;6.70;3.38;;;-4.90;98.00;;;;;;5052714;28;20237;-64
2023/02/10 05:26:21;;;;;;;3.85;3.33;;;-4.90;98.00;;;;;;5052933;28;20399;-64
2023/02/10 05:28:48;;;;;;;5.22;3.97;;;-5.00;98.00;;;;;;5052685;28;20199;-65
2023/02/10 05:31:15;;;;;;;4.75;3.80;;;-5.00;98.00;;;;;;5052753;28;20612;-64
2023/02/10 05:33:42;;;;;;;3.25;2.92;;;-4.90;98.00;;;;;;5051399;28;20295;-64
2023/02/10 05:36:10;;;;;;;7.53;4.68;;;-4.80;98.00;;;;;;5051527;28;20273;-65
2023/02/10 05:38:38;;;;;;;9.38;4.20;;;-4.60;98.00;;;;;;5052381;28;20198;-64
2023/02/10 05:41:05;;;;;;;9.93;4.50;;;-4.70;98.00;;;;;;5052312;28;20616;-64
2023/02/10 05:43:32;;;;;;;5.03;3.42;;;-4.80;98.00;;;;;;5052405;28;20226;-64
2023/02/10 05:46:00;;;;;;;5.10;3.25;;;-4.60;98.00;;;;;;5052243;28;20520;-65
2023/02/10 05:48:28;;;;;;;7.00;3.85;;;-4.80;98.00;;;;;;5052390;28;20199;-64
2023/02/10 05:50:56;;;;;;;5.22;4.85;;;-4.80;98.00;;;;;;5050957;28;20249;-64
2023/02/10 05:53:23;;;;;;;6.63;3.45;;;-4.80;98.00;;;;;;5052314;28;20250;-64
2023/02/10 05:55:52;;;;;;;12.38;6.28;;;-4.80;98.00;;;;;;5050888;28;20207;-64
2023/02/10 05:58:19;;;;;;;3.30;2.88;;;-4.70;98.00;;;;;;5052144;28;20204;-65
2023/02/10 06:00:46;;;;;;;7.40;3.88;;;-4.60;98.00;;;;;;5051930;28;20203;-64
2023/02/10 06:03:13;;;;;;;9.52;4.80;;;-4.70;98.00;;;;;;5052279;28;20563;-64
2023/02/10 06:05:40;;;;;;;6.85;3.35;;;-4.90;98.00;;;;;;5051240;28;20196;-64
2023/02/10 06:08:07;;;;;;;4.57;3.90;;;-5.00;98.00;;;;;;5051936;28;20276;-64
2023/02/10 06:10:34;;;;;;;11.07;4.13;;;-5.10;98.00;;;;;;5052071;28;20206;-65
2023/02/10 06:13:07;;;;;;;5.93;3.40;;;-5.30;98.00;;;;;;5050356;28;20666;-64
2023/02/10 06:15:34;;;;;;;9.10;5.78;;;-5.30;98.00;;;;;;5051681;28;20204;-64
2023/02/10 06:18:01;;;;;;;6.13;4.30;;;-5.30;98.00;;;;;;5050570;28;20227;-64
2023/02/10 06:20:29;;;;;;;10.30;4.47;;;-5.30;98.00;;;;;;5051733;28;20649;-64
2023/02/10 06:22:56;;;;;;;13.55;6.70;;;-5.30;98.00;;;;;;5052068;28;20268;-64
2023/02/10 06:25:23;;;;;;;5.30;3.30;;;-5.20;98.00;;;;;;5052064;28;20233;-64
2023/02/10 06:27:50;;;;;;;6.65;3.72;;;-5.30;98.00;;;;;;5050692;28;20203;-64
2023/02/10 06:30:19;;;;;;;8.65;6.60;;;-5.10;98.00;;;;;;5051701;28;20210;-64
2023/02/10 06:32:46;;;;;;;4.38;3.25;;;-5.10;98.00;;;;;;5050342;28;20195;-65
2023/02/10 06:35:13;;;;;;;10.45;3.97;;;-5.10;98.00;;;;;;5051696;28;20203;-64
2023/02/10 06:37:40;;;;;;;8.60;4.13;;;-5.20;98.00;;;;;;5050331;28;20223;-65
2023/02/10 06:40:08;;;;;;;7.88;4.65;;;-5.10;98.00;;;;;;5051568;28;20195;-64
2023/02/10 06:42:36;;;;;;;6.60;4.85;;;-5.10;98.00;;;;;;5051403;28;20200;-65
2023/02/10 06:45:04;;;;;;;6.25;4.32;;;-5.00;98.00;;;;;;5050201;28;20211;-65
2023/02/10 06:47:33;;;;;;;6.03;4.07;;;-5.00;98.00;;;;;;5051429;28;20199;-63
2023/02/10 06:50:00;;;;;;;3.97;3.20;;;-5.00;98.00;;;;;;5050148;28;20203;-63
2023/02/10 06:52:27;;;;;;;7.15;4.05;;;-4.80;98.00;;;;;;5051401;28;20195;-62
2023/02/10 06:54:54;;;;;;;6.00;4.78;;;-4.90;98.00;;;;;;5051176;28;20231;-62
2023/02/10 06:57:23;;;;;;;8.80;4.60;;;-4.90;98.00;;;;;;5051270;28;20226;-63
2023/02/10 06:59:52;;;;;;;5.60;3.20;;;-5.00;98.00;;;;;;5050260;28;20603;-63
2023/02/10 07:02:19;;;;;;;5.10;3.78;;;-5.00;98.00;;;;;;5050286;28;20211;-69
2023/02/10 07:04:48;;;;;;;5.82;4.85;;;-5.00;98.00;;;;;;5051743;28;20203;-70
2023/02/10 07:07:15;;;;;;;4.18;3.45;;;-5.00;98.00;;;;;;5051073;28;20661;-69
2023/02/10 07:09:42;;;;;;;4.80;3.63;;;-5.00;98.00;;;;;;5051538;28;20210;-69
2023/02/10 07:12:09;;;;;;;5.57;3.70;;;-5.00;98.00;;;;;;5051129;28;20201;-69
2023/02/10 07:14:38;;;;;;;6.22;3.83;;;-5.00;98.00;;;;;;5051315;28;20245;-70
2023/02/10 07:17:06;;;;;;;6.07;3.53;;;-5.00;98.00;;;;;;5049956;28;20666;-70
2023/02/10 07:19:34;;;;;;;9.93;3.85;;;-4.90;98.00;;;;;;5051137;28;20620;-70
2023/02/10 07:22:04;;;;;;;7.50;4.38;;;-4.90;98.00;;;;;;5051007;28;20202;-70
2023/02/10 07:24:31;;;;;;;7.40;4.10;;;-4.80;98.00;;;;;;5052066;28;20565;-69
2023/02/10 07:26:58;;;;;;;7.60;5.05;;;-4.80;98.00;;;;;;5055042;28;20203;-70
2023/02/10 07:29:25;;;;;;;6.22;4.03;;;-4.80;98.00;;;;;;5054907;28;20237;-70
2023/02/10 07:31:53;;;;;;;7.47;2.88;;;-4.80;98.00;;;;;;5054986;28;20210;-69
2023/02/10 07:34:20;;;;;;;5.43;3.25;;;-4.70;98.00;;;;;;5053930;28;20199;-69
2023/02/10 07:36:53;;;;;;;7.50;4.68;;;-4.70;98.00;;;;;;5055040;28;20235;-69
2023/02/10 07:39:22;;;;;;;13.52;4.70;;;-4.70;98.00;;;;;;5055186;28;20202;-69
2023/02/10 07:41:49;;;;;;;6.53;3.95;;;-4.70;98.00;;;;;;5054830;28;20215;-69
2023/02/10 07:44:16;;;;;;;7.00;4.30;;;-4.50;98.00;;;;;;5055016;28;20215;-69
2023/02/10 07:46:43;;;;;;;8.43;3.47;;;-4.30;98.00;;;;;;5054633;28;20722;-69
2023/02/10 07:49:10;;;;;;;5.45;3.95;;;-4.20;98.00;;;;;;5054925;28;20207;-69
2023/02/10 07:51:37;;;;;;;7.72;4.28;;;-4.00;98.00;;;;;;5054585;28;20677;-69
2023/02/10 07:54:05;;;;;;;6.97;2.97;;;-4.00;98.00;;;;;;5054999;28;20204;-70
2023/02/10 07:56:34;;;;;;;3.78;3.10;;;-3.90;98.00;;;;;;5054750;28;20191;-69
2023/02/10 07:59:01;;;;;;;10.35;4.38;;;-3.80;98.00;;;;;;5054974;28;20207;-69
2023/02/10 08:01:29;;;;;;;8.38;5.43;;;-3.70;98.00;;;;;;5054880;28;20423;-69
2023/02/10 08:03:57;;;;;;;7.63;4.63;;;-3.70;98.00;;;;;;5054773;28;20233;-69
2023/02/10 08:06:25;;;;;;;9.07;5.75;;;-3.70;98.00;;;;;;5054696;28;20203;-70
2023/02/10 08:08:52;;;;;;;13.20;5.43;;;-3.60;98.00;;;;;;5054321;28;20215;-69
2023/02/10 08:11:19;;;;;;;5.45;4.78;;;-3.60;98.00;;;;;;5054551;28;20200;-70
2023/02/10 08:13:48;;;;;;;7.43;4.68;;;-3.50;98.00;;;;;;5054296;28;20203;-70
2023/02/10 08:16:15;;;;;;;8.68;5.30;;;-3.40;98.00;;;;;;5054244;28;20203;-70
2023/02/10 08:18:42;;;;;;;10.73;4.95;;;-3.30;98.00;;;;;;5054046;28;20310;-69
2023/02/10 08:21:09;;;;;;;6.90;5.18;;;-3.30;98.00;;;;;;5054075;28;20206;-69
2023/02/10 08:23:37;;;;;;;10.35;6.40;;;-3.20;98.00;;;;;;5054323;28;20747;-70
2023/02/10 08:26:05;;;;;;;8.55;5.13;;;-3.00;98.00;;;;;;5054014;28;20207;-69
2023/02/10 08:28:33;;;;;;;7.78;4.47;;;-3.00;98.00;;;;;;5054102;28;20200;-69
2023/02/10 08:31:02;;;;;;;13.45;6.28;;;-3.00;98.00;;;;;;5054013;28;20555;-70
2023/02/10 08:33:31;;;;;;;5.80;4.13;;;-2.80;98.00;;;;;;5053883;28;20693;-69
2023/02/10 08:35:58;;;;;;;8.80;5.40;;;-2.70;98.00;;;;;;5053533;28;20203;-70
2023/02/10 08:38:25;;;;;;;7.70;4.75;;;-2.70;98.00;;;;;;5052478;28;20533;-70
2023/02/10 08:40:56;;;;;;;6.63;3.78;;;-2.60;98.00;;;;;;5053745;28;20231;-70
2023/02/10 08:43:23;;;;;;;10.52;5.22;;;-2.60;98.00;;;;;;5054090;28;20740;-70
2023/02/10 08:45:51;;;;;;;6.50;4.57;;;-2.50;98.00;;;;;;5053617;28;20204;-69
2023/02/10 08:48:19;;;;;;;10.30;5.22;;;-2.50;98.00;;;;;;5053789;28;20199;-69
2023/02/10 08:50:46;;;;;;;9.57;4.65;;;-2.50;98.00;;;;;;5053671;28;20200;-70
2023/02/10 08:53:13;;;;;;;6.90;4.70;;;-2.50;98.00;;;;;;5047462;28;20208;-69
2023/02/10 08:55:40;;;;;;;10.82;5.28;;;-2.60;98.00;;;;;;5053108;28;20463;-69
2023/02/10 08:58:07;;;;;;;6.23;4.87;;;-2.60;98.00;;;;;;5051798;28;20231;-69
2023/02/10 09:00:35;;;;;;;15.77;5.95;;;-2.50;98.00;;;;;;5053406;28;20993;-69
2023/02/10 09:03:02;;;;;;;10.90;5.95;;;-2.40;98.00;;;;;;5053332;28;20561;-69
2023/02/10 09:05:31;;;;;;;9.27;4.30;;;-2.30;98.00;;;;;;5053112;28;20199;-70
2023/02/10 09:07:58;;;;;;;6.93;4.97;;;-2.30;98.00;;;;;;5053246;28;20208;-69
2023/02/10 09:10:25;;;;;;;8.70;6.63;;;-2.20;98.00;;;;;;5053402;28;20469;-70
2023/02/10 09:12:52;;;;;;;7.43;5.55;;;-2.00;98.00;;;;;;5053010;28;20458;-70
2023/02/10 09:15:19;;;;;;;16.57;5.07;;;-1.80;98.00;;;;;;5053003;28;20298;-70
2023/02/10 09:17:47;;;;;;;13.68;6.32;;;-1.60;98.00;;;;;;5051214;28;20883;-69
2023/02/10 09:20:14;;;;;;;20.65;6.10;;;-1.40;98.00;;;;;;5034783;28;20199;-69
2023/02/10 09:22:43;;;;;;;7.63;5.23;;;-1.50;98.00;;;;;;5036615;28;20196;-69
2023/02/10 09:25:11;;;;;;;15.80;7.20;;;-1.50;98.00;;;;;;5050623;28;20458;-70
2023/02/10 09:27:38;;;;;;;17.07;5.70;;;-1.30;98.00;;;;;;5052875;28;20451;-70
2023/02/10 09:30:05;;;;;;;10.90;5.33;;;-1.20;98.00;;;;;;5052889;28;20827;-70
2023/02/10 09:32:32;;;;;;;9.93;5.90;;;-1.00;98.00;;;;;;5053121;28;20452;-70
2023/02/10 09:34:59;;;;;;;12.43;6.30;;;-1.00;98.00;;;;;;5052722;28;20463;-70
2023/02/10 09:37:26;;;;;;;6.97;4.67;;;-0.80;98.00;;;;;;5052452;28;20483;-69
2023/02/10 09:39:56;;;;;;;12.80;6.17;;;-0.60;98.00;;;;;;5042416;28;20864;-70
2023/02/10 09:42:31;;;;;;;11.70;6.67;;;-0.40;98.00;;;;;;5031349;28;20486;-70
2023/02/10 09:45:07;;;;;;;9.60;6.00;;;-0.30;98.00;;;;;;5032530;28;20471;-70
2023/02/10 09:47:48;;;;;;;8.30;5.33;;;-0.20;98.00;;;;;;5031951;28;20924;-69
2023/02/10 09:50:37;;;;;;;14.30;7.03;;;-0.10;98.00;;;;;;5032546;28;20473;-70
2023/02/10 09:53:13;;;;;;;9.50;4.97;;;0.00;98.00;;;;;;5029658;28;20477;-69
2023/02/10 09:55:46;;;;;;;11.17;6.10;;;0.10;98.00;;;;;;5033772;28;22000;-70
2023/02/10 09:58:21;;;;;;;9.67;6.53;;;0.20;98.00;;;;;;5037809;28;20491;-70
2023/02/10 10:00:53;;;;;;;10.70;5.00;;;0.20;98.00;;;;;;5031236;28;20488;-69
2023/02/10 10:03:25;;;;;;;8.13;4.90;;;0.20;98.00;;;;;;5037080;28;20471;-70
2023/02/10 10:06:03;;;;;;;8.30;4.57;;;0.30;98.00;;;;;;5040696;28;20464;-68
2023/02/10 10:08:39;;;;;;;14.13;6.23;;;0.30;98.00;;;;;;5052528;28;20461;-69
2023/02/10 10:11:27;;;;;;;9.40;4.80;;;0.40;98.00;;;;;;5052329;28;20468;-69
2023/02/10 10:13:56;;;;;;;15.23;4.80;;;0.60;98.00;;;;;;5052444;28;20456;-70
2023/02/10 10:16:52;;;;;;;15.63;6.33;;;0.80;98.00;;;;;;5052567;28;20507;-70
2023/02/10 10:19:35;;;;;;;18.77;5.60;;;1.10;98.00;;;;;;5052495;28;20619;-70
2023/02/10 10:22:22;;;;;;;9.80;4.13;;;1.20;98.00;;;;;;5051435;28;20897;-70
2023/02/10 10:25:21;;;;;;;11.20;4.77;;;1.30;98.00;;;;;;5052563;28;20996;-70
2023/02/10 10:28:00;;;;;;;6.80;4.10;;;1.40;98.00;;;;;;5051522;28;20453;-70
2023/02/10 10:30:37;;;;;;;16.03;6.00;;;1.60;98.00;;;;;;5051332;28;20462;-70
2023/02/10 10:33:20;;;;;;;14.07;5.90;;;1.90;98.00;;;;;;5052396;28;20548;-69
2023/02/10 10:35:47;;;;;;;8.57;5.57;;;2.00;98.00;;;;;;5052405;28;20490;-70
2023/02/10 10:38:16;;;;;;;11.10;4.40;;;2.10;98.00;;;;;;5052133;28;20535;-69
2023/02/10 10:40:46;;;;;;;11.10;6.40;;;2.30;98.00;;;;;;5052450;28;20468;-70
2023/02/10 10:43:22;;;;;;;12.70;6.23;;;2.40;98.00;;;;;;5052455;28;20462;-70
2023/02/10 10:45:53;;;;;;;9.70;5.43;;;2.60;98.00;;;;;;5052322;28;20511;-70
2023/02/10 10:48:26;;;;;;;10.00;6.20;;;2.70;98.00;;;;;;5052619;28;20852;-70
2023/02/10 10:50:58;;;;;;;11.23;6.07;;;2.90;98.00;;;;;;5052361;28;20493;-70
2023/02/10 10:53:38;;;;;;;11.30;4.77;;;3.00;98.00;;;;;;5052559;28;20457;-70
2023/02/10 10:56:08;;;;;;;25.97;6.13;;;3.10;98.00;;;;;;5052364;28;20545;-70
2023/02/10 10:58:40;;;;;;;10.10;5.40;;;3.20;98.00;;;;;;5050782;28;20513;-69
2023/02/10 11:01:08;;;;;;;8.13;5.83;;;3.40;98.00;;;;;;5052010;28;20457;-69
2023/02/10 11:03:35;;;;;;;5.50;3.83;;;3.60;98.00;;;;;;5051866;28;20454;-70
2023/02/10 11:06:06;;;;;;;11.40;5.30;;;3.60;98.00;;;;;;5051871;28;20457;-70
2023/02/10 11:08:40;;;;;;;15.33;6.63;;;3.60;98.00;;;;;;5051858;28;20584;-70
2023/02/10 11:11:09;;;;;;;7.03;4.30;;;3.80;98.00;;;;;;5051886;28;20468;-69
2023/02/10 11:13:40;;;;;;;7.73;4.70;;;4.00;98.00;;;;;;5051588;28;20450;-69
2023/02/10 11:16:11;;;;;;;8.83;5.50;;;4.10;98.00;;;;;;5051626;28;20446;-70
2023/02/10 11:18:39;;;;;;;8.17;4.20;;;4.40;98.00;;;;;;5051397;28;21013;-69
2023/02/10 11:21:10;;;;;;;10.40;4.57;;;4.60;98.00;;;;;;5050092;28;20487;-70
2023/02/10 11:23:48;;;;;;;19.53;5.90;;;4.80;98.00;;;;;;5048335;28;20516;-69
2023/02/10 11:26:20;;;;;;;12.40;5.00;;;5.00;98.00;;;;;;5051863;28;20463;-70
2023/02/10 11:28:50;;;;;;;10.70;5.00;;;5.20;98.00;;;;;;5050639;28;20460;-70
2023/02/10 11:31:31;;;;;;;18.53;4.87;;;5.50;98.00;;;;;;5050445;28;20464;-70
2023/02/10 11:34:01;;;;;;;11.43;4.67;;;5.80;98.00;;;;;;5051693;28;20460;-70
2023/02/10 11:36:36;;;;;;;12.87;5.60;;;6.10;98.00;;;;;;5051326;28;20830;-70
2023/02/10 11:39:05;;;;;;;17.90;5.73;;;6.30;98.00;;;;;;5051542;28;20528;-70
2023/02/10 11:41:33;;;;;;;15.37;5.73;;;6.60;98.00;;;;;;5051782;28;20523;-70
2023/02/10 11:44:02;;;;;;;14.17;5.80;;;6.80;98.00;;;;;;5051634;28;20464;-70
2023/02/10 11:46:32;;;;;;;15.37;6.30;;;7.10;97.40;;;;;;5051932;28;20498;-70
2023/02/10 11:49:00;;;;;;;18.87;7.40;;;7.30;96.60;;;;;;5051662;28;21022;-70
2023/02/10 11:51:28;;;;;;;15.83;5.40;;;7.60;96.50;;;;;;5051875;28;20549;-70
2023/02/10 11:53:57;;;;;;;17.03;5.43;;;8.10;95.10;;;;;;5051440;28;20953;-70
2023/02/10 11:59:29;;;;;;;15.57;6.27;;;8.50;91.90;;;;;;5051218;28;20528;-70
2023/02/10 12:01:59;;;;;;;15.10;5.10;;;8.70;91.30;;;;;;5051451;28;20471;-70
2023/02/10 12:04:44;;;;;;;17.03;5.93;;;9.00;90.20;;;;;;5051597;28;20492;-70
2023/02/10 12:07:21;;;;;;;10.13;5.00;;;9.00;89.20;;;;;;5051393;28;20471;-70
2023/02/10 12:09:55;;;;;;;16.07;5.27;;;9.20;89.80;;;;;;5051411;28;20549;-70
2023/02/10 12:12:34;;;;;;;14.30;5.67;;;9.40;89.10;;;;;;5054790;28;20551;-71
2023/02/10 12:15:14;;;;;;;15.50;6.13;;;9.50;87.30;;;;;;5053873;28;20503;-71
2023/02/10 12:17:55;;;;;;;9.97;4.63;;;9.80;87.20;;;;;;5054973;28;20829;-71
2023/02/10 12:20:44;;;;;;;9.87;4.43;;;9.90;85.50;;;;;;5055149;28;20954;-70
2023/02/10 12:23:52;;;;;;;22.97;7.00;;;10.20;85.30;;;;;;5054863;28;20492;-71
2023/02/10 12:26:24;;;;;;;16.93;6.90;;;10.00;84.50;;;;;;5054809;28;20935;-71
2023/02/10 12:29:08;;;;;;;21.17;6.30;;;10.00;83.80;;;;;;5054779;28;20457;-71
2023/02/10 12:31:46;;;;;;;18.23;6.00;;;9.90;84.80;;;;;;5054931;28;20476;-71
2023/02/10 12:34:27;;;;;;;15.10;6.50;;;10.20;84.90;;;;;;5053394;28;20970;-71
2023/02/10 12:37:02;;;;;;;20.43;6.33;;;10.50;85.20;;;;;;5054782;28;20459;-71
2023/02/10 12:39:40;;;;;;;13.10;5.93;;;10.60;83.60;;;;;;5054711;28;20492;-71
2023/02/10 12:42:21;;;;;;;20.30;7.20;;;10.70;83.00;;;;;;5054659;28;20460;-71
2023/02/10 12:44:57;;;;;;;16.70;6.63;;;10.90;82.20;;;;;;5054747;28;20514;-71
2023/02/10 12:47:36;;;;;;;15.90;5.63;;;10.70;81.90;;;;;;5054800;28;20456;-71
2023/02/10 12:50:22;;;;;;;14.00;5.70;;;11.00;82.10;;;;;;5040493;28;20460;-71
2023/02/10 12:52:55;;;;;;;19.27;6.40;;;11.20;80.90;;;;;;5033095;28;20460;-71
2023/02/10 12:55:28;;;;;;;11.00;5.40;;;11.60;81.40;;;;;;5035557;28;20453;-71
2023/02/10 12:58:01;;;;;;;18.10;6.37;;;11.90;79.80;;;;;;5034128;28;20460;-71
2023/02/10 13:00:34;;;;;;;18.57;6.10;;;12.10;79.00;;;;;;5034123;28;20457;-71
2023/02/10 13:03:09;;;;;;;16.43;5.87;;;12.00;78.70;;;;;;5050944;28;20450;-71
2023/02/10 13:05:40;;;;;;;14.83;6.80;;;12.10;78.60;;;;;;5053053;28;20453;-71